sensor_id;sensor_type;location;lat;lon;timestamp;P1;durP1;ratioP1;P2;durP2;ratioP2
38609;SDS011;24367;51.640;9.566;2023-09-19T00:01:29;2.63;;;0.88;;
38609;SDS011;24367;51.640;9.566;2023-09-19T00:03:58;3.45;;;0.70;;
38609;SDS011;24367;51.640;9.566;2023-09-19T00:06:25;2.35;;;1.10;;
38609;SDS011;24367;51.640;9.566;2023-09-19T00:08:56;2.10;;;0.90;;
38609;SDS011;24367;51.640;9.566;2023-09-19T00:11:25;2.15;;;1.00;;
38609;SDS011;24367;51.640;9.566;2023-09-19T00:13:52;1.73;;;0.75;;
38609;SDS011;24367;51.640;9.566;2023-09-19T00:16:18;2.72;;;0.85;;
38609;SDS011;24367;51.640;9.566;2023-09-19T00:18:45;1.90;;;0.60;;
38609;SDS011;24367;51.640;9.566;2023-09-19T00:21:13;1.52;;;0.70;;
38609;SDS011;24367;51.640;9.566;2023-09-19T00:23:40;2.85;;;0.93;;
38609;SDS011;24367;51.640;9.566;2023-09-19T00:26:07;3.03;;;0.80;;
38609;SDS011;24367;51.640;9.566;2023-09-19T00:28:33;2.85;;;0.70;;
38609;SDS011;24367;51.640;9.566;2023-09-19T00:31:00;1.45;;;0.77;;
38609;SDS011;24367;51.640;9.566;2023-09-19T00:33:27;1.50;;;0.65;;
38609;SDS011;24367;51.640;9.566;2023-09-19T00:35:56;2.90;;;0.88;;
38609;SDS011;24367;51.640;9.566;2023-09-19T00:38:24;1.63;;;0.60;;
38609;SDS011;24367;51.640;9.566;2023-09-19T00:40:52;1.17;;;0.63;;
38609;SDS011;24367;51.640;9.566;2023-09-19T00:43:20;2.60;;;1.00;;
38609;SDS011;24367;51.640;9.566;2023-09-19T00:45:49;2.20;;;0.93;;
38609;SDS011;24367;51.640;9.566;2023-09-19T00:48:16;2.58;;;0.80;;
38609;SDS011;24367;51.640;9.566;2023-09-19T00:50:44;2.13;;;0.70;;
38609;SDS011;24367;51.640;9.566;2023-09-19T00:53:13;1.70;;;0.70;;
38609;SDS011;24367;51.640;9.566;2023-09-19T00:55:42;2.58;;;0.90;;
38609;SDS011;24367;51.640;9.566;2023-09-19T00:58:09;3.05;;;0.90;;
38609;SDS011;24367;51.640;9.566;2023-09-19T01:00:36;1.63;;;0.70;;
38609;SDS011;24367;51.640;9.566;2023-09-19T01:03:04;1.90;;;0.88;;
38609;SDS011;24367;51.640;9.566;2023-09-19T01:05:32;2.42;;;0.88;;
38609;SDS011;24367;51.640;9.566;2023-09-19T01:07:59;1.10;;;0.60;;
38609;SDS011;24367;51.640;9.566;2023-09-19T01:10:26;2.85;;;0.75;;
38609;SDS011;24367;51.640;9.566;2023-09-19T01:12:58;2.63;;;0.85;;
38609;SDS011;24367;51.640;9.566;2023-09-19T01:15:32;1.42;;;0.70;;
38609;SDS011;24367;51.640;9.566;2023-09-19T01:18:09;1.70;;;0.70;;
38609;SDS011;24367;51.640;9.566;2023-09-19T01:20:40;2.33;;;0.73;;
38609;SDS011;24367;51.640;9.566;2023-09-19T01:23:11;3.03;;;0.70;;
38609;SDS011;24367;51.640;9.566;2023-09-19T01:28:39;3.58;;;1.33;;
38609;SDS011;24367;51.640;9.566;2023-09-19T01:31:13;2.42;;;0.70;;
38609;SDS011;24367;51.640;9.566;2023-09-19T01:33:53;2.50;;;0.80;;
38609;SDS011;24367;51.640;9.566;2023-09-19T01:36:22;1.58;;;0.70;;
38609;SDS011;24367;51.640;9.566;2023-09-19T01:38:49;2.47;;;0.70;;
38609;SDS011;24367;51.640;9.566;2023-09-19T01:41:19;2.20;;;0.90;;
38609;SDS011;24367;51.640;9.566;2023-09-19T01:43:49;1.75;;;0.70;;
38609;SDS011;24367;51.640;9.566;2023-09-19T01:46:18;2.13;;;0.80;;
38609;SDS011;24367;51.640;9.566;2023-09-19T01:48:49;1.20;;;0.60;;
38609;SDS011;24367;51.640;9.566;2023-09-19T01:51:25;2.47;;;0.80;;
38609;SDS011;24367;51.640;9.566;2023-09-19T01:54:00;1.48;;;0.60;;
38609;SDS011;24367;51.640;9.566;2023-09-19T01:56:31;2.92;;;0.73;;
38609;SDS011;24367;51.640;9.566;2023-09-19T01:59:02;1.80;;;0.75;;
38609;SDS011;24367;51.640;9.566;2023-09-19T02:01:32;1.83;;;0.75;;
38609;SDS011;24367;51.640;9.566;2023-09-19T02:04:00;1.98;;;0.75;;
38609;SDS011;24367;51.640;9.566;2023-09-19T02:06:26;1.75;;;0.60;;
38609;SDS011;24367;51.640;9.566;2023-09-19T02:08:53;2.03;;;0.60;;
38609;SDS011;24367;51.640;9.566;2023-09-19T02:11:20;1.98;;;0.73;;
38609;SDS011;24367;51.640;9.566;2023-09-19T02:13:47;4.53;;;0.90;;
38609;SDS011;24367;51.640;9.566;2023-09-19T02:16:16;1.88;;;0.70;;
38609;SDS011;24367;51.640;9.566;2023-09-19T02:18:47;5.00;;;0.80;;
38609;SDS011;24367;51.640;9.566;2023-09-19T02:21:14;3.67;;;0.80;;
38609;SDS011;24367;51.640;9.566;2023-09-19T02:23:40;1.67;;;0.77;;
38609;SDS011;24367;51.640;9.566;2023-09-19T02:26:07;2.13;;;0.70;;
38609;SDS011;24367;51.640;9.566;2023-09-19T02:28:33;1.80;;;0.70;;
38609;SDS011;24367;51.640;9.566;2023-09-19T02:31:01;2.58;;;0.90;;
38609;SDS011;24367;51.640;9.566;2023-09-19T02:33:30;2.03;;;0.93;;
38609;SDS011;24367;51.640;9.566;2023-09-19T02:35:59;1.52;;;0.90;;
38609;SDS011;24367;51.640;9.566;2023-09-19T02:38:26;1.73;;;0.80;;
38609;SDS011;24367;51.640;9.566;2023-09-19T02:40:54;3.20;;;0.90;;
38609;SDS011;24367;51.640;9.566;2023-09-19T02:43:20;3.33;;;1.30;;
38609;SDS011;24367;51.640;9.566;2023-09-19T02:45:47;1.67;;;0.80;;
38609;SDS011;24367;51.640;9.566;2023-09-19T02:48:14;1.23;;;0.60;;
38609;SDS011;24367;51.640;9.566;2023-09-19T02:50:41;2.88;;;1.05;;
38609;SDS011;24367;51.640;9.566;2023-09-19T02:53:09;3.20;;;0.88;;
38609;SDS011;24367;51.640;9.566;2023-09-19T02:55:37;1.02;;;0.75;;
38609;SDS011;24367;51.640;9.566;2023-09-19T02:58:05;0.90;;;0.70;;
38609;SDS011;24367;51.640;9.566;2023-09-19T03:00:33;2.88;;;0.88;;
38609;SDS011;24367;51.640;9.566;2023-09-19T03:03:00;2.10;;;0.82;;
38609;SDS011;24367;51.640;9.566;2023-09-19T03:05:27;2.17;;;1.00;;
38609;SDS011;24367;51.640;9.566;2023-09-19T03:07:56;1.90;;;1.02;;
38609;SDS011;24367;51.640;9.566;2023-09-19T03:10:27;3.30;;;1.20;;
38609;SDS011;24367;51.640;9.566;2023-09-19T03:12:57;2.85;;;0.90;;
38609;SDS011;24367;51.640;9.566;2023-09-19T03:15:25;2.45;;;0.98;;
38609;SDS011;24367;51.640;9.566;2023-09-19T03:17:52;5.32;;;1.42;;
38609;SDS011;24367;51.640;9.566;2023-09-19T03:20:21;2.80;;;1.00;;
38609;SDS011;24367;51.640;9.566;2023-09-19T03:22:48;3.13;;;1.40;;
38609;SDS011;24367;51.640;9.566;2023-09-19T03:25:15;2.13;;;1.10;;
38609;SDS011;24367;51.640;9.566;2023-09-19T03:27:47;2.33;;;1.15;;
38609;SDS011;24367;51.640;9.566;2023-09-19T03:30:14;2.83;;;1.40;;
38609;SDS011;24367;51.640;9.566;2023-09-19T03:32:45;2.88;;;1.10;;
38609;SDS011;24367;51.640;9.566;2023-09-19T03:35:14;2.90;;;1.47;;
38609;SDS011;24367;51.640;9.566;2023-09-19T03:37:42;2.30;;;1.20;;
38609;SDS011;24367;51.640;9.566;2023-09-19T03:40:09;4.13;;;1.42;;
38609;SDS011;24367;51.640;9.566;2023-09-19T03:42:37;3.67;;;1.60;;
38609;SDS011;24367;51.640;9.566;2023-09-19T03:45:07;3.50;;;1.63;;
38609;SDS011;24367;51.640;9.566;2023-09-19T03:47:37;3.30;;;1.60;;
38609;SDS011;24367;51.640;9.566;2023-09-19T03:50:04;3.05;;;1.38;;
38609;SDS011;24367;51.640;9.566;2023-09-19T03:52:33;2.50;;;1.40;;
38609;SDS011;24367;51.640;9.566;2023-09-19T03:55:00;3.05;;;1.38;;
38609;SDS011;24367;51.640;9.566;2023-09-19T03:57:28;2.90;;;1.77;;
38609;SDS011;24367;51.640;9.566;2023-09-19T03:59:54;3.92;;;1.40;;
38609;SDS011;24367;51.640;9.566;2023-09-19T04:02:22;4.15;;;1.60;;
38609;SDS011;24367;51.640;9.566;2023-09-19T04:04:50;4.03;;;1.70;;
38609;SDS011;24367;51.640;9.566;2023-09-19T04:07:17;3.40;;;1.73;;
38609;SDS011;24367;51.640;9.566;2023-09-19T04:09:44;3.90;;;1.80;;
38609;SDS011;24367;51.640;9.566;2023-09-19T04:12:10;2.65;;;1.55;;
38609;SDS011;24367;51.640;9.566;2023-09-19T04:14:37;4.97;;;1.83;;
38609;SDS011;24367;51.640;9.566;2023-09-19T04:17:04;2.92;;;1.65;;
38609;SDS011;24367;51.640;9.566;2023-09-19T04:19:32;3.00;;;1.65;;
38609;SDS011;24367;51.640;9.566;2023-09-19T04:21:59;3.00;;;1.40;;
38609;SDS011;24367;51.640;9.566;2023-09-19T04:24:25;4.43;;;2.17;;
38609;SDS011;24367;51.640;9.566;2023-09-19T04:26:52;4.38;;;1.90;;
38609;SDS011;24367;51.640;9.566;2023-09-19T04:29:18;3.97;;;1.25;;
38609;SDS011;24367;51.640;9.566;2023-09-19T04:31:45;4.78;;;1.65;;
38609;SDS011;24367;51.640;9.566;2023-09-19T04:34:11;2.40;;;1.50;;
38609;SDS011;24367;51.640;9.566;2023-09-19T04:36:41;2.95;;;1.52;;
38609;SDS011;24367;51.640;9.566;2023-09-19T04:39:08;5.47;;;2.15;;
38609;SDS011;24367;51.640;9.566;2023-09-19T04:41:36;3.08;;;1.73;;
38609;SDS011;24367;51.640;9.566;2023-09-19T04:44:04;4.68;;;2.00;;
38609;SDS011;24367;51.640;9.566;2023-09-19T04:46:31;3.33;;;1.55;;
38609;SDS011;24367;51.640;9.566;2023-09-19T04:48:57;3.08;;;1.75;;
38609;SDS011;24367;51.640;9.566;2023-09-19T04:51:24;4.18;;;1.90;;
38609;SDS011;24367;51.640;9.566;2023-09-19T04:53:55;4.18;;;1.88;;
38609;SDS011;24367;51.640;9.566;2023-09-19T04:56:22;4.60;;;2.10;;
38609;SDS011;24367;51.640;9.566;2023-09-19T04:58:49;3.38;;;1.55;;
38609;SDS011;24367;51.640;9.566;2023-09-19T05:01:15;3.30;;;1.90;;
38609;SDS011;24367;51.640;9.566;2023-09-19T05:03:42;3.55;;;1.80;;
38609;SDS011;24367;51.640;9.566;2023-09-19T05:06:09;3.75;;;1.90;;
38609;SDS011;24367;51.640;9.566;2023-09-19T05:08:36;3.95;;;1.98;;
38609;SDS011;24367;51.640;9.566;2023-09-19T05:11:05;5.13;;;2.28;;
38609;SDS011;24367;51.640;9.566;2023-09-19T05:13:31;4.85;;;2.28;;
38609;SDS011;24367;51.640;9.566;2023-09-19T05:15:59;4.07;;;1.92;;
38609;SDS011;24367;51.640;9.566;2023-09-19T05:18:26;5.75;;;2.08;;
38609;SDS011;24367;51.640;9.566;2023-09-19T05:20:53;6.28;;;1.80;;
38609;SDS011;24367;51.640;9.566;2023-09-19T05:23:19;9.07;;;2.20;;
38609;SDS011;24367;51.640;9.566;2023-09-19T05:25:46;6.75;;;1.98;;
38609;SDS011;24367;51.640;9.566;2023-09-19T05:28:15;5.13;;;2.13;;
38609;SDS011;24367;51.640;9.566;2023-09-19T05:30:41;7.18;;;2.25;;
38609;SDS011;24367;51.640;9.566;2023-09-19T05:33:08;4.45;;;1.90;;
38609;SDS011;24367;51.640;9.566;2023-09-19T05:35:35;5.25;;;2.00;;
38609;SDS011;24367;51.640;9.566;2023-09-19T05:38:02;6.80;;;2.30;;
38609;SDS011;24367;51.640;9.566;2023-09-19T05:40:30;3.92;;;1.85;;
38609;SDS011;24367;51.640;9.566;2023-09-19T05:42:57;9.10;;;2.63;;
38609;SDS011;24367;51.640;9.566;2023-09-19T05:45:25;4.75;;;1.67;;
38609;SDS011;24367;51.640;9.566;2023-09-19T05:47:52;3.38;;;1.70;;
38609;SDS011;24367;51.640;9.566;2023-09-19T05:50:20;5.28;;;1.80;;
38609;SDS011;24367;51.640;9.566;2023-09-19T05:52:51;6.57;;;2.25;;
38609;SDS011;24367;51.640;9.566;2023-09-19T05:55:18;2.92;;;1.45;;
38609;SDS011;24367;51.640;9.566;2023-09-19T05:57:48;3.88;;;1.60;;
38609;SDS011;24367;51.640;9.566;2023-09-19T06:00:16;4.95;;;2.03;;
38609;SDS011;24367;51.640;9.566;2023-09-19T06:02:44;4.15;;;1.70;;
38609;SDS011;24367;51.640;9.566;2023-09-19T06:05:11;6.28;;;2.10;;
38609;SDS011;24367;51.640;9.566;2023-09-19T06:07:37;7.07;;;2.35;;
38609;SDS011;24367;51.640;9.566;2023-09-19T06:10:04;5.25;;;1.92;;
38609;SDS011;24367;51.640;9.566;2023-09-19T06:12:32;7.25;;;2.53;;
38609;SDS011;24367;51.640;9.566;2023-09-19T06:15:02;5.03;;;1.83;;
38609;SDS011;24367;51.640;9.566;2023-09-19T06:17:30;5.93;;;2.33;;
38609;SDS011;24367;51.640;9.566;2023-09-19T06:19:58;5.13;;;2.13;;
38609;SDS011;24367;51.640;9.566;2023-09-19T06:22:24;6.22;;;2.10;;
38609;SDS011;24367;51.640;9.566;2023-09-19T06:24:51;5.57;;;2.15;;
38609;SDS011;24367;51.640;9.566;2023-09-19T06:27:18;5.40;;;1.80;;
38609;SDS011;24367;51.640;9.566;2023-09-19T06:29:44;5.13;;;2.17;;
38609;SDS011;24367;51.640;9.566;2023-09-19T06:32:11;5.18;;;1.80;;
38609;SDS011;24367;51.640;9.566;2023-09-19T06:34:37;6.10;;;2.28;;
38609;SDS011;24367;51.640;9.566;2023-09-19T06:37:05;5.70;;;2.05;;
38609;SDS011;24367;51.640;9.566;2023-09-19T06:39:32;5.80;;;1.92;;
38609;SDS011;24367;51.640;9.566;2023-09-19T06:41:58;5.00;;;2.20;;
38609;SDS011;24367;51.640;9.566;2023-09-19T06:44:26;6.75;;;2.10;;
38609;SDS011;24367;51.640;9.566;2023-09-19T06:46:54;6.45;;;2.17;;
38609;SDS011;24367;51.640;9.566;2023-09-19T06:49:21;9.10;;;2.50;;
38609;SDS011;24367;51.640;9.566;2023-09-19T06:51:47;10.00;;;2.40;;
38609;SDS011;24367;51.640;9.566;2023-09-19T06:54:15;6.78;;;2.47;;
38609;SDS011;24367;51.640;9.566;2023-09-19T06:56:43;7.03;;;2.60;;
38609;SDS011;24367;51.640;9.566;2023-09-19T06:59:09;7.10;;;2.22;;
38609;SDS011;24367;51.640;9.566;2023-09-19T07:01:39;6.55;;;2.92;;
38609;SDS011;24367;51.640;9.566;2023-09-19T07:04:06;9.57;;;2.38;;
38609;SDS011;24367;51.640;9.566;2023-09-19T07:06:33;7.72;;;2.40;;
38609;SDS011;24367;51.640;9.566;2023-09-19T07:08:59;5.93;;;2.10;;
38609;SDS011;24367;51.640;9.566;2023-09-19T07:11:27;7.28;;;2.72;;
38609;SDS011;24367;51.640;9.566;2023-09-19T07:13:55;5.82;;;2.35;;
38609;SDS011;24367;51.640;9.566;2023-09-19T07:16:23;6.88;;;2.30;;
38609;SDS011;24367;51.640;9.566;2023-09-19T07:18:55;6.38;;;2.30;;
38609;SDS011;24367;51.640;9.566;2023-09-19T07:21:22;6.28;;;2.53;;
38609;SDS011;24367;51.640;9.566;2023-09-19T07:23:49;6.82;;;2.35;;
38609;SDS011;24367;51.640;9.566;2023-09-19T07:26:15;6.03;;;2.08;;
38609;SDS011;24367;51.640;9.566;2023-09-19T07:28:43;6.07;;;2.38;;
38609;SDS011;24367;51.640;9.566;2023-09-19T07:31:10;5.78;;;2.00;;
38609;SDS011;24367;51.640;9.566;2023-09-19T07:33:38;8.68;;;2.45;;
38609;SDS011;24367;51.640;9.566;2023-09-19T07:36:05;5.47;;;2.25;;
38609;SDS011;24367;51.640;9.566;2023-09-19T07:38:32;5.78;;;2.20;;
38609;SDS011;24367;51.640;9.566;2023-09-19T07:41:00;13.63;;;2.47;;
38609;SDS011;24367;51.640;9.566;2023-09-19T07:43:27;5.40;;;2.17;;
38609;SDS011;24367;51.640;9.566;2023-09-19T07:45:55;6.75;;;2.30;;
38609;SDS011;24367;51.640;9.566;2023-09-19T07:48:21;6.45;;;2.25;;
38609;SDS011;24367;51.640;9.566;2023-09-19T07:50:49;5.95;;;2.45;;
38609;SDS011;24367;51.640;9.566;2023-09-19T07:53:16;5.68;;;2.10;;
38609;SDS011;24367;51.640;9.566;2023-09-19T07:55:42;5.03;;;2.15;;
38609;SDS011;24367;51.640;9.566;2023-09-19T07:58:13;5.90;;;2.65;;
38609;SDS011;24367;51.640;9.566;2023-09-19T08:00:41;6.15;;;2.20;;
38609;SDS011;24367;51.640;9.566;2023-09-19T08:03:08;7.97;;;2.78;;
38609;SDS011;24367;51.640;9.566;2023-09-19T08:05:39;6.28;;;2.13;;
38609;SDS011;24367;51.640;9.566;2023-09-19T08:08:08;6.72;;;2.30;;
38609;SDS011;24367;51.640;9.566;2023-09-19T08:10:35;5.68;;;2.22;;
38609;SDS011;24367;51.640;9.566;2023-09-19T08:13:05;6.05;;;2.42;;
38609;SDS011;24367;51.640;9.566;2023-09-19T08:15:36;7.15;;;2.67;;
38609;SDS011;24367;51.640;9.566;2023-09-19T08:18:11;5.32;;;2.50;;
38609;SDS011;24367;51.640;9.566;2023-09-19T08:20:38;6.55;;;2.33;;
38609;SDS011;24367;51.640;9.566;2023-09-19T08:23:07;6.82;;;2.78;;
38609;SDS011;24367;51.640;9.566;2023-09-19T08:25:34;5.85;;;2.17;;
38609;SDS011;24367;51.640;9.566;2023-09-19T08:28:00;5.78;;;2.38;;
38609;SDS011;24367;51.640;9.566;2023-09-19T08:30:28;5.63;;;2.40;;
38609;SDS011;24367;51.640;9.566;2023-09-19T08:32:56;6.65;;;2.83;;
38609;SDS011;24367;51.640;9.566;2023-09-19T08:35:25;6.38;;;2.17;;
38609;SDS011;24367;51.640;9.566;2023-09-19T08:37:52;4.57;;;2.25;;
38609;SDS011;24367;51.640;9.566;2023-09-19T08:40:18;5.57;;;2.42;;
38609;SDS011;24367;51.640;9.566;2023-09-19T08:42:48;5.57;;;2.65;;
38609;SDS011;24367;51.640;9.566;2023-09-19T08:45:16;5.38;;;2.30;;
38609;SDS011;24367;51.640;9.566;2023-09-19T08:47:45;5.65;;;2.20;;
38609;SDS011;24367;51.640;9.566;2023-09-19T08:50:15;7.63;;;2.28;;
38609;SDS011;24367;51.640;9.566;2023-09-19T08:52:47;6.70;;;2.42;;
38609;SDS011;24367;51.640;9.566;2023-09-19T08:55:18;4.72;;;2.45;;
38609;SDS011;24367;51.640;9.566;2023-09-19T08:57:48;6.35;;;2.65;;
38609;SDS011;24367;51.640;9.566;2023-09-19T09:00:16;5.45;;;1.92;;
38609;SDS011;24367;51.640;9.566;2023-09-19T09:02:45;7.43;;;2.53;;
38609;SDS011;24367;51.640;9.566;2023-09-19T09:05:13;4.70;;;2.17;;
38609;SDS011;24367;51.640;9.566;2023-09-19T09:07:42;5.68;;;2.42;;
38609;SDS011;24367;51.640;9.566;2023-09-19T09:10:11;4.70;;;2.20;;
38609;SDS011;24367;51.640;9.566;2023-09-19T09:12:37;6.47;;;2.60;;
38609;SDS011;24367;51.640;9.566;2023-09-19T09:15:05;4.93;;;2.03;;
38609;SDS011;24367;51.640;9.566;2023-09-19T09:17:33;6.85;;;2.50;;
38609;SDS011;24367;51.640;9.566;2023-09-19T09:20:00;6.28;;;2.67;;
38609;SDS011;24367;51.640;9.566;2023-09-19T09:22:26;6.25;;;2.30;;
38609;SDS011;24367;51.640;9.566;2023-09-19T09:24:53;5.93;;;2.30;;
38609;SDS011;24367;51.640;9.566;2023-09-19T09:27:24;6.20;;;2.42;;
38609;SDS011;24367;51.640;9.566;2023-09-19T09:29:51;5.28;;;2.42;;
38609;SDS011;24367;51.640;9.566;2023-09-19T09:32:20;5.75;;;2.17;;
38609;SDS011;24367;51.640;9.566;2023-09-19T09:34:49;5.80;;;2.25;;
38609;SDS011;24367;51.640;9.566;2023-09-19T09:37:16;7.05;;;2.42;;
38609;SDS011;24367;51.640;9.566;2023-09-19T09:39:54;6.88;;;2.65;;
38609;SDS011;24367;51.640;9.566;2023-09-19T09:42:33;7.35;;;2.35;;
38609;SDS011;24367;51.640;9.566;2023-09-19T09:47:54;6.07;;;2.40;;
38609;SDS011;24367;51.640;9.566;2023-09-19T09:50:23;5.78;;;2.20;;
38609;SDS011;24367;51.640;9.566;2023-09-19T09:53:05;6.80;;;2.38;;
38609;SDS011;24367;51.640;9.566;2023-09-19T09:55:59;6.47;;;2.45;;
38609;SDS011;24367;51.640;9.566;2023-09-19T09:58:29;5.60;;;2.30;;
38609;SDS011;24367;51.640;9.566;2023-09-19T10:00:57;6.80;;;2.70;;
38609;SDS011;24367;51.640;9.566;2023-09-19T10:03:30;5.20;;;2.10;;
38609;SDS011;24367;51.640;9.566;2023-09-19T10:05:59;5.22;;;2.13;;
38609;SDS011;24367;51.640;9.566;2023-09-19T10:08:27;6.03;;;2.25;;
38609;SDS011;24367;51.640;9.566;2023-09-19T10:10:56;6.72;;;2.30;;
38609;SDS011;24367;51.640;9.566;2023-09-19T10:13:31;5.47;;;2.17;;
38609;SDS011;24367;51.640;9.566;2023-09-19T10:16:03;7.78;;;2.53;;
38609;SDS011;24367;51.640;9.566;2023-09-19T10:18:35;5.63;;;2.22;;
38609;SDS011;24367;51.640;9.566;2023-09-19T10:21:04;9.55;;;3.05;;
38609;SDS011;24367;51.640;9.566;2023-09-19T10:23:32;6.18;;;2.50;;
38609;SDS011;24367;51.640;9.566;2023-09-19T10:26:02;6.55;;;2.67;;
38609;SDS011;24367;51.640;9.566;2023-09-19T10:28:31;5.18;;;2.42;;
38609;SDS011;24367;51.640;9.566;2023-09-19T10:30:58;8.48;;;2.63;;
38609;SDS011;24367;51.640;9.566;2023-09-19T10:33:26;6.38;;;2.50;;
38609;SDS011;24367;51.640;9.566;2023-09-19T10:38:27;5.95;;;2.38;;
38609;SDS011;24367;51.640;9.566;2023-09-19T10:40:54;5.68;;;2.42;;
38609;SDS011;24367;51.640;9.566;2023-09-19T10:43:25;7.13;;;2.50;;
38609;SDS011;24367;51.640;9.566;2023-09-19T10:46:00;9.20;;;3.05;;
38609;SDS011;24367;51.640;9.566;2023-09-19T10:48:29;6.03;;;2.30;;
38609;SDS011;24367;51.640;9.566;2023-09-19T10:50:58;7.55;;;2.33;;
38609;SDS011;24367;51.640;9.566;2023-09-19T10:53:29;7.70;;;2.40;;
38609;SDS011;24367;51.640;9.566;2023-09-19T10:56:07;6.38;;;2.80;;
38609;SDS011;24367;51.640;9.566;2023-09-19T10:58:42;6.13;;;2.78;;
38609;SDS011;24367;51.640;9.566;2023-09-19T11:01:11;7.03;;;2.80;;
38609;SDS011;24367;51.640;9.566;2023-09-19T11:03:40;9.13;;;3.13;;
38609;SDS011;24367;51.640;9.566;2023-09-19T11:06:09;7.85;;;2.95;;
38609;SDS011;24367;51.640;9.566;2023-09-19T11:11:44;6.85;;;2.47;;
38609;SDS011;24367;51.640;9.566;2023-09-19T11:14:30;6.70;;;2.78;;
38609;SDS011;24367;51.640;9.566;2023-09-19T11:23:20;6.18;;;2.67;;
38609;SDS011;24367;51.640;9.566;2023-09-19T11:25:50;7.22;;;3.00;;
38609;SDS011;24367;51.640;9.566;2023-09-19T11:28:31;8.15;;;2.75;;
38609;SDS011;24367;51.640;9.566;2023-09-19T11:36:56;8.02;;;2.70;;
38609;SDS011;24367;51.640;9.566;2023-09-19T11:39:24;7.15;;;2.67;;
38609;SDS011;24367;51.640;9.566;2023-09-19T11:41:52;9.30;;;3.25;;
38609;SDS011;24367;51.640;9.566;2023-09-19T11:44:31;12.43;;;3.42;;
38609;SDS011;24367;51.640;9.566;2023-09-19T11:46:59;6.68;;;2.90;;
38609;SDS011;24367;51.640;9.566;2023-09-19T11:49:26;6.43;;;2.70;;
38609;SDS011;24367;51.640;9.566;2023-09-19T11:51:56;7.00;;;3.08;;
38609;SDS011;24367;51.640;9.566;2023-09-19T11:54:26;6.38;;;2.35;;
38609;SDS011;24367;51.640;9.566;2023-09-19T11:56:56;6.55;;;2.70;;
38609;SDS011;24367;51.640;9.566;2023-09-19T11:59:24;8.38;;;2.83;;
38609;SDS011;24367;51.640;9.566;2023-09-19T12:01:53;7.63;;;2.92;;
38609;SDS011;24367;51.640;9.566;2023-09-19T12:04:33;7.72;;;2.80;;
38609;SDS011;24367;51.640;9.566;2023-09-19T12:07:04;6.68;;;2.70;;
38609;SDS011;24367;51.640;9.566;2023-09-19T12:09:35;7.88;;;2.78;;
38609;SDS011;24367;51.640;9.566;2023-09-19T12:12:02;9.07;;;3.03;;
38609;SDS011;24367;51.640;9.566;2023-09-19T12:14:29;6.50;;;2.70;;
38609;SDS011;24367;51.640;9.566;2023-09-19T12:16:57;6.82;;;2.70;;
38609;SDS011;24367;51.640;9.566;2023-09-19T12:19:25;7.47;;;3.17;;
38609;SDS011;24367;51.640;9.566;2023-09-19T12:21:54;7.70;;;2.80;;
38609;SDS011;24367;51.640;9.566;2023-09-19T12:24:24;6.75;;;2.85;;
38609;SDS011;24367;51.640;9.566;2023-09-19T12:26:51;9.63;;;3.10;;
38609;SDS011;24367;51.640;9.566;2023-09-19T12:29:19;9.70;;;3.17;;
38609;SDS011;24367;51.640;9.566;2023-09-19T12:31:47;6.65;;;2.72;;
38609;SDS011;24367;51.640;9.566;2023-09-19T12:34:19;6.68;;;3.08;;
38609;SDS011;24367;51.640;9.566;2023-09-19T12:36:46;9.07;;;2.60;;
38609;SDS011;24367;51.640;9.566;2023-09-19T12:39:22;7.18;;;2.47;;
38609;SDS011;24367;51.640;9.566;2023-09-19T12:41:51;8.55;;;2.83;;
38609;SDS011;24367;51.640;9.566;2023-09-19T12:44:18;7.97;;;3.25;;
38609;SDS011;24367;51.640;9.566;2023-09-19T12:46:45;8.48;;;2.60;;
38609;SDS011;24367;51.640;9.566;2023-09-19T12:49:15;8.20;;;3.03;;
38609;SDS011;24367;51.640;9.566;2023-09-19T12:51:43;6.72;;;3.05;;
38609;SDS011;24367;51.640;9.566;2023-09-19T12:54:10;6.47;;;2.47;;
38609;SDS011;24367;51.640;9.566;2023-09-19T12:56:39;6.07;;;2.67;;
38609;SDS011;24367;51.640;9.566;2023-09-19T12:59:08;5.97;;;2.50;;
38609;SDS011;24367;51.640;9.566;2023-09-19T13:01:38;6.63;;;2.75;;
38609;SDS011;24367;51.640;9.566;2023-09-19T13:04:10;8.35;;;2.80;;
38609;SDS011;24367;51.640;9.566;2023-09-19T13:06:37;6.28;;;2.70;;
38609;SDS011;24367;51.640;9.566;2023-09-19T13:09:08;7.03;;;2.78;;
38609;SDS011;24367;51.640;9.566;2023-09-19T13:11:35;6.35;;;2.70;;
38609;SDS011;24367;51.640;9.566;2023-09-19T13:14:15;5.63;;;2.83;;
38609;SDS011;24367;51.640;9.566;2023-09-19T13:17:02;7.63;;;2.95;;
38609;SDS011;24367;51.640;9.566;2023-09-19T13:19:36;5.20;;;2.47;;
38609;SDS011;24367;51.640;9.566;2023-09-19T13:22:04;6.70;;;2.83;;
38609;SDS011;24367;51.640;9.566;2023-09-19T13:24:33;5.93;;;2.30;;
38609;SDS011;24367;51.640;9.566;2023-09-19T13:27:05;5.97;;;3.15;;
38609;SDS011;24367;51.640;9.566;2023-09-19T13:29:33;8.63;;;2.60;;
38609;SDS011;24367;51.640;9.566;2023-09-19T13:31:59;5.93;;;2.70;;
38609;SDS011;24367;51.640;9.566;2023-09-19T13:34:27;5.68;;;2.40;;
38609;SDS011;24367;51.640;9.566;2023-09-19T13:36:54;8.18;;;3.40;;
38609;SDS011;24367;51.640;9.566;2023-09-19T13:39:21;5.53;;;2.30;;
38609;SDS011;24367;51.640;9.566;2023-09-19T13:41:49;5.47;;;2.58;;
38609;SDS011;24367;51.640;9.566;2023-09-19T13:44:16;7.22;;;2.53;;
38609;SDS011;24367;51.640;9.566;2023-09-19T13:46:44;8.88;;;2.83;;
38609;SDS011;24367;51.640;9.566;2023-09-19T13:49:11;10.27;;;3.10;;
38609;SDS011;24367;51.640;9.566;2023-09-19T13:51:38;10.32;;;3.03;;
38609;SDS011;24367;51.640;9.566;2023-09-19T13:54:08;8.02;;;2.83;;
38609;SDS011;24367;51.640;9.566;2023-09-19T13:56:35;9.93;;;2.67;;
38609;SDS011;24367;51.640;9.566;2023-09-19T13:59:02;9.95;;;2.85;;
38609;SDS011;24367;51.640;9.566;2023-09-19T14:01:29;9.30;;;2.80;;
38609;SDS011;24367;51.640;9.566;2023-09-19T14:03:56;9.10;;;2.40;;
38609;SDS011;24367;51.640;9.566;2023-09-19T14:06:23;9.18;;;2.90;;
38609;SDS011;24367;51.640;9.566;2023-09-19T14:08:50;7.93;;;2.30;;
38609;SDS011;24367;51.640;9.566;2023-09-19T14:11:17;15.38;;;3.13;;
38609;SDS011;24367;51.640;9.566;2023-09-19T14:13:43;8.55;;;2.72;;
38609;SDS011;24367;51.640;9.566;2023-09-19T14:16:12;16.35;;;3.72;;
38609;SDS011;24367;51.640;9.566;2023-09-19T14:18:38;13.55;;;3.05;;
38609;SDS011;24367;51.640;9.566;2023-09-19T14:21:06;12.77;;;2.42;;
38609;SDS011;24367;51.640;9.566;2023-09-19T14:23:34;7.03;;;2.08;;
38609;SDS011;24367;51.640;9.566;2023-09-19T14:26:01;9.77;;;2.28;;
38609;SDS011;24367;51.640;9.566;2023-09-19T14:28:28;6.38;;;2.08;;
38609;SDS011;24367;51.640;9.566;2023-09-19T14:30:55;11.23;;;2.65;;
38609;SDS011;24367;51.640;9.566;2023-09-19T14:33:21;7.05;;;2.28;;
38609;SDS011;24367;51.640;9.566;2023-09-19T14:35:47;8.93;;;2.40;;
38609;SDS011;24367;51.640;9.566;2023-09-19T14:38:15;6.70;;;2.30;;
38609;SDS011;24367;51.640;9.566;2023-09-19T14:40:42;8.10;;;2.25;;
38609;SDS011;24367;51.640;9.566;2023-09-19T14:43:08;9.45;;;2.20;;
38609;SDS011;24367;51.640;9.566;2023-09-19T14:45:35;14.20;;;2.10;;
38609;SDS011;24367;51.640;9.566;2023-09-19T14:48:01;7.00;;;2.40;;
38609;SDS011;24367;51.640;9.566;2023-09-19T14:50:30;7.13;;;2.03;;
38609;SDS011;24367;51.640;9.566;2023-09-19T14:52:58;7.57;;;2.53;;
38609;SDS011;24367;51.640;9.566;2023-09-19T14:55:28;10.40;;;2.50;;
38609;SDS011;24367;51.640;9.566;2023-09-19T14:57:59;7.30;;;2.28;;
38609;SDS011;24367;51.640;9.566;2023-09-19T15:00:27;7.50;;;2.13;;
38609;SDS011;24367;51.640;9.566;2023-09-19T15:02:54;6.03;;;2.30;;
38609;SDS011;24367;51.640;9.566;2023-09-19T15:05:21;5.40;;;1.95;;
38609;SDS011;24367;51.640;9.566;2023-09-19T15:07:47;13.27;;;2.38;;
38609;SDS011;24367;51.640;9.566;2023-09-19T15:10:14;18.00;;;3.00;;
38609;SDS011;24367;51.640;9.566;2023-09-19T15:12:43;14.80;;;3.13;;
38609;SDS011;24367;51.640;9.566;2023-09-19T15:15:09;15.77;;;3.42;;
38609;SDS011;24367;51.640;9.566;2023-09-19T15:17:38;22.67;;;3.45;;
38609;SDS011;24367;51.640;9.566;2023-09-19T15:20:04;14.15;;;2.85;;